sensor_id;sensor_type;location;lat;lon;timestamp;pressure;altitude;pressure_sealevel;temperature;humidity
51321;BME280;38732;49.556;6.286;2022-09-28T10:47:57;97923.63;;;18.06;54.78
51321;BME280;38732;49.556;6.286;2022-09-28T10:50:27;97923.50;;;18.39;52.47
51321;BME280;38732;49.556;6.286;2022-09-28T10:53:10;97919.84;;;17.80;51.88
51321;BME280;38732;49.556;6.286;2022-09-28T10:55:38;97927.38;;;18.32;51.65
51321;BME280;38732;49.556;6.286;2022-09-28T10:58:36;97924.22;;;17.46;51.77
51321;BME280;38732;49.556;6.286;2022-09-28T11:01:11;97917.06;;;17.83;49.10
51321;BME280;38732;49.556;6.286;2022-09-28T11:06:25;97926.16;;;17.92;48.72
51321;BME280;38732;49.556;6.286;2022-09-28T11:09:03;97919.94;;;17.77;48.84
51321;BME280;38732;49.556;6.286;2022-09-28T11:11:39;97916.03;;;18.63;47.88
51321;BME280;38732;49.556;6.286;2022-09-28T11:19:51;97926.59;;;17.66;51.68
51321;BME280;38732;49.556;6.286;2022-09-28T11:33:02;97913.56;;;19.78;43.94
51321;BME280;38732;49.556;6.286;2022-09-28T11:35:43;97920.50;;;19.50;45.61
51321;BME280;38732;49.556;6.286;2022-09-28T11:38:39;97918.56;;;18.19;46.83
51321;BME280;38732;49.556;6.286;2022-09-28T11:49:50;97911.94;;;20.58;40.55
51321;BME280;38732;49.556;6.286;2022-09-28T11:52:29;97912.88;;;20.03;43.43
51321;BME280;38732;49.556;6.286;2022-09-28T11:55:15;97903.31;;;21.35;41.24
51321;BME280;38732;49.556;6.286;2022-09-28T11:57:49;97899.28;;;22.76;35.97
51321;BME280;38732;49.556;6.286;2022-09-28T12:00:22;97893.22;;;23.45;36.34
51321;BME280;38732;49.556;6.286;2022-09-28T12:05:27;97889.53;;;25.41;31.11
51321;BME280;38732;49.556;6.286;2022-09-28T12:10:37;97912.25;;;23.60;34.03
51321;BME280;38732;49.556;6.286;2022-09-28T12:13:15;97912.22;;;23.48;35.41
51321;BME280;38732;49.556;6.286;2022-09-28T12:15:53;97895.09;;;23.65;35.08
51321;BME280;38732;49.556;6.286;2022-09-28T12:18:43;97892.47;;;25.17;33.57
51321;BME280;38732;49.556;6.286;2022-09-28T12:24:22;97890.06;;;26.35;31.34
51321;BME280;38732;49.556;6.286;2022-09-28T12:27:10;97876.97;;;26.73;30.60
51321;BME280;38732;49.556;6.286;2022-09-28T12:29:50;97883.44;;;27.37;28.71
51321;BME280;38732;49.556;6.286;2022-09-28T12:32:33;97880.59;;;27.38;28.47
51321;BME280;38732;49.556;6.286;2022-09-28T12:35:26;97881.72;;;27.73;26.74
51321;BME280;38732;49.556;6.286;2022-09-28T12:43:40;97888.63;;;27.93;25.75
51321;BME280;38732;49.556;6.286;2022-09-28T12:49:32;97875.63;;;29.16;23.95
51321;BME280;38732;49.556;6.286;2022-09-28T12:55:18;97882.56;;;29.69;25.19
51321;BME280;38732;49.556;6.286;2022-09-28T13:12:45;97880.28;;;21.64;36.27
51321;BME280;38732;49.556;6.286;2022-09-28T13:15:31;97875.03;;;21.64;35.92
51321;BME280;38732;49.556;6.286;2022-09-28T13:18:07;97880.47;;;22.10;34.51
51321;BME280;38732;49.556;6.286;2022-09-28T13:23:28;97872.81;;;22.07;37.05
51321;BME280;38732;49.556;6.286;2022-09-28T13:29:16;97882.31;;;22.21;34.64
51321;BME280;38732;49.556;6.286;2022-09-28T13:31:52;97876.34;;;22.19;34.70
51321;BME280;38732;49.556;6.286;2022-09-28T13:34:28;97881.22;;;20.33;36.16
51321;BME280;38732;49.556;6.286;2022-09-28T13:37:16;97880.88;;;21.80;35.74
51321;BME280;38732;49.556;6.286;2022-09-28T13:39:48;97881.56;;;21.32;35.88
51321;BME280;38732;49.556;6.286;2022-09-28T13:42:48;97875.59;;;21.43;37.75
51321;BME280;38732;49.556;6.286;2022-09-28T13:48:33;97879.03;;;21.69;38.93
51321;BME280;38732;49.556;6.286;2022-09-28T13:51:37;97880.53;;;21.48;37.94
51321;BME280;38732;49.556;6.286;2022-09-28T13:59:29;97880.44;;;22.47;35.40
51321;BME280;38732;49.556;6.286;2022-09-28T14:25:01;97906.91;;;20.55;40.64
51321;BME280;38732;49.556;6.286;2022-09-28T14:30:26;97901.84;;;19.98;41.13
51321;BME280;38732;49.556;6.286;2022-09-28T14:33:15;97902.19;;;20.06;40.33
51321;BME280;38732;49.556;6.286;2022-09-28T14:35:57;97904.41;;;19.85;40.15
51321;BME280;38732;49.556;6.286;2022-09-28T14:38:46;97907.09;;;19.83;41.58
51321;BME280;38732;49.556;6.286;2022-09-28T14:53:56;97911.03;;;19.76;40.79
51321;BME280;38732;49.556;6.286;2022-09-28T14:56:40;97915.22;;;19.22;41.63
51321;BME280;38732;49.556;6.286;2022-09-28T14:59:25;97919.66;;;19.50;41.40
51321;BME280;38732;49.556;6.286;2022-09-28T15:01:58;97921.56;;;19.03;43.83
51321;BME280;38732;49.556;6.286;2022-09-28T15:04:32;97923.22;;;18.60;42.68
51321;BME280;38732;49.556;6.286;2022-09-28T15:07:02;97918.13;;;18.72;42.28
51321;BME280;38732;49.556;6.286;2022-09-28T15:09:35;97926.56;;;18.78;42.49
51321;BME280;38732;49.556;6.286;2022-09-28T15:12:10;97914.38;;;18.62;45.36
51321;BME280;38732;49.556;6.286;2022-09-28T15:14:49;97923.97;;;18.00;43.98
51321;BME280;38732;49.556;6.286;2022-09-28T15:20:58;97923.69;;;17.73;47.52
51321;BME280;38732;49.556;6.286;2022-09-28T15:23:35;97924.13;;;15.89;52.08
51321;BME280;38732;49.556;6.286;2022-09-28T15:26:05;97912.53;;;15.78;52.97
51321;BME280;38732;49.556;6.286;2022-09-28T15:28:35;97910.28;;;16.79;54.50
51321;BME280;38732;49.556;6.286;2022-09-28T15:31:16;97907.66;;;16.96;57.18
51321;BME280;38732;49.556;6.286;2022-09-28T15:33:45;97907.19;;;17.06;58.61
51321;BME280;38732;49.556;6.286;2022-09-28T15:36:26;97900.19;;;17.23;55.70
51321;BME280;38732;49.556;6.286;2022-09-28T15:39:00;97906.28;;;17.40;56.41
51321;BME280;38732;49.556;6.286;2022-09-28T15:41:30;97901.19;;;17.70;58.58
51321;BME280;38732;49.556;6.286;2022-09-28T15:46:44;97901.56;;;17.80;57.09
51321;BME280;38732;49.556;6.286;2022-09-28T15:49:37;97903.25;;;17.81;56.53
51321;BME280;38732;49.556;6.286;2022-09-28T15:52:21;97904.22;;;17.62;54.74
51321;BME280;38732;49.556;6.286;2022-09-28T15:54:50;97905.22;;;17.60;53.63
51321;BME280;38732;49.556;6.286;2022-09-28T15:57:34;97905.28;;;17.58;56.11
51321;BME280;38732;49.556;6.286;2022-09-28T16:00:22;97905.81;;;17.65;54.62
51321;BME280;38732;49.556;6.286;2022-09-28T16:03:03;97907.84;;;17.60;54.92
51321;BME280;38732;49.556;6.286;2022-09-28T16:11:25;97914.91;;;17.58;57.64
51321;BME280;38732;49.556;6.286;2022-09-28T16:13:56;97921.47;;;17.32;55.48
51321;BME280;38732;49.556;6.286;2022-09-28T16:16:30;97920.56;;;17.33;59.81
51321;BME280;38732;49.556;6.286;2022-09-28T16:19:01;97916.91;;;17.53;59.89
51321;BME280;38732;49.556;6.286;2022-09-28T16:21:43;97913.72;;;17.48;59.66
51321;BME280;38732;49.556;6.286;2022-09-28T16:24:24;97919.94;;;17.45;59.14
51321;BME280;38732;49.556;6.286;2022-09-28T16:27:03;97914.50;;;17.32;57.59
51321;BME280;38732;49.556;6.286;2022-09-28T16:29:35;97915.00;;;17.23;57.61
51321;BME280;38732;49.556;6.286;2022-09-28T16:37:34;97919.47;;;17.03;58.38
51321;BME280;38732;49.556;6.286;2022-09-28T16:40:03;97924.69;;;16.86;60.08
51321;BME280;38732;49.556;6.286;2022-09-28T16:42:32;97928.59;;;16.77;61.15
51321;BME280;38732;49.556;6.286;2022-09-28T16:45:01;97926.44;;;16.68;63.76
51321;BME280;38732;49.556;6.286;2022-09-28T16:47:31;97934.84;;;16.56;62.30
51321;BME280;38732;49.556;6.286;2022-09-28T16:50:02;97933.16;;;16.55;60.30
51321;BME280;38732;49.556;6.286;2022-09-28T16:52:31;97942.41;;;16.43;62.21
51321;BME280;38732;49.556;6.286;2022-09-28T16:54:59;97961.66;;;16.22;67.07
51321;BME280;38732;49.556;6.286;2022-09-28T16:57:28;97964.22;;;15.05;72.00
51321;BME280;38732;49.556;6.286;2022-09-28T16:59:56;97969.09;;;14.06;78.68
51321;BME280;38732;49.556;6.286;2022-09-28T17:02:24;97982.44;;;12.44;81.52
51321;BME280;38732;49.556;6.286;2022-09-28T17:04:52;97977.91;;;14.23;76.23
51321;BME280;38732;49.556;6.286;2022-09-28T17:07:21;97956.91;;;14.74;72.91
51321;BME280;38732;49.556;6.286;2022-09-28T17:09:49;97958.84;;;14.89;76.50
51321;BME280;38732;49.556;6.286;2022-09-28T17:12:20;97966.00;;;14.84;77.32
51321;BME280;38732;49.556;6.286;2022-09-28T17:14:49;97964.88;;;14.89;79.10
51321;BME280;38732;49.556;6.286;2022-09-28T17:17:17;97971.13;;;14.85;78.05
51321;BME280;38732;49.556;6.286;2022-09-28T17:19:45;97973.78;;;14.84;81.03
51321;BME280;38732;49.556;6.286;2022-09-28T17:22:14;97975.59;;;14.82;79.73
51321;BME280;38732;49.556;6.286;2022-09-28T17:24:42;97970.72;;;14.74;81.93
51321;BME280;38732;49.556;6.286;2022-09-28T17:27:14;97978.81;;;14.66;82.72
51321;BME280;38732;49.556;6.286;2022-09-28T17:29:43;97973.09;;;14.58;82.55
51321;BME280;38732;49.556;6.286;2022-09-28T17:32:17;97977.50;;;14.56;84.33
51321;BME280;38732;49.556;6.286;2022-09-28T17:34:45;97980.63;;;14.42;83.60
51321;BME280;38732;49.556;6.286;2022-09-28T17:37:14;97975.84;;;14.32;82.14
51321;BME280;38732;49.556;6.286;2022-09-28T17:39:42;97987.47;;;14.23;83.91
51321;BME280;38732;49.556;6.286;2022-09-28T17:42:11;97985.63;;;14.03;84.53
51321;BME280;38732;49.556;6.286;2022-09-28T17:44:39;97984.28;;;13.93;83.84
51321;BME280;38732;49.556;6.286;2022-09-28T17:47:07;97985.69;;;13.78;85.59
51321;BME280;38732;49.556;6.286;2022-09-28T17:49:37;97985.22;;;13.90;83.82
51321;BME280;38732;49.556;6.286;2022-09-28T17:52:05;97989.69;;;13.87;84.25
51321;BME280;38732;49.556;6.286;2022-09-28T17:54:33;97988.50;;;13.72;84.96
51321;BME280;38732;49.556;6.286;2022-09-28T17:57:02;97981.41;;;13.77;83.61
51321;BME280;38732;49.556;6.286;2022-09-28T17:59:30;97979.09;;;13.69;83.34
51321;BME280;38732;49.556;6.286;2022-09-28T18:01:58;97986.31;;;13.61;84.65
51321;BME280;38732;49.556;6.286;2022-09-28T18:04:26;97987.94;;;13.64;84.39
51321;BME280;38732;49.556;6.286;2022-09-28T18:06:55;97989.00;;;13.58;83.86
51321;BME280;38732;49.556;6.286;2022-09-28T18:09:23;97991.38;;;13.64;86.10
51321;BME280;38732;49.556;6.286;2022-09-28T18:11:58;98001.47;;;13.48;86.00
51321;BME280;38732;49.556;6.286;2022-09-28T18:14:27;97996.53;;;13.41;87.28
51321;BME280;38732;49.556;6.286;2022-09-28T18:16:55;98003.19;;;13.48;84.37
51321;BME280;38732;49.556;6.286;2022-09-28T18:19:23;98008.59;;;13.42;83.97
51321;BME280;38732;49.556;6.286;2022-09-28T18:21:51;98013.75;;;13.43;84.97
51321;BME280;38732;49.556;6.286;2022-09-28T18:24:20;98005.28;;;13.38;84.84
51321;BME280;38732;49.556;6.286;2022-09-28T18:26:48;98013.22;;;13.33;84.53
51321;BME280;38732;49.556;6.286;2022-09-28T18:29:16;98014.09;;;13.32;85.00
51321;BME280;38732;49.556;6.286;2022-09-28T18:31:44;98021.81;;;13.34;86.42
51321;BME280;38732;49.556;6.286;2022-09-28T18:34:13;98019.69;;;13.45;87.70
51321;BME280;38732;49.556;6.286;2022-09-28T18:36:41;98019.69;;;13.45;87.34
51321;BME280;38732;49.556;6.286;2022-09-28T18:39:09;98024.28;;;13.38;85.24
51321;BME280;38732;49.556;6.286;2022-09-28T18:41:38;98020.91;;;13.35;84.29
51321;BME280;38732;49.556;6.286;2022-09-28T18:44:06;98022.63;;;13.36;85.50
51321;BME280;38732;49.556;6.286;2022-09-28T18:46:34;98020.03;;;13.36;85.73
51321;BME280;38732;49.556;6.286;2022-09-28T18:49:03;98016.78;;;13.29;85.81
51321;BME280;38732;49.556;6.286;2022-09-28T18:51:31;98026.03;;;13.38;84.92
51321;BME280;38732;49.556;6.286;2022-09-28T18:54:00;98027.22;;;13.28;85.11
51321;BME280;38732;49.556;6.286;2022-09-28T18:56:28;98026.41;;;13.26;85.56
51321;BME280;38732;49.556;6.286;2022-09-28T18:58:56;98029.75;;;13.29;87.27
51321;BME280;38732;49.556;6.286;2022-09-28T19:01:25;98030.97;;;13.17;85.60
51321;BME280;38732;49.556;6.286;2022-09-28T19:03:54;98031.84;;;13.18;85.55
51321;BME280;38732;49.556;6.286;2022-09-28T19:06:22;98037.22;;;13.12;84.90
51321;BME280;38732;49.556;6.286;2022-09-28T19:08:51;98036.16;;;13.17;86.06
51321;BME280;38732;49.556;6.286;2022-09-28T19:11:20;98032.94;;;13.11;87.20
51321;BME280;38732;49.556;6.286;2022-09-28T19:13:49;98038.03;;;13.14;86.32
51321;BME280;38732;49.556;6.286;2022-09-28T19:16:20;98038.88;;;13.14;86.95
51321;BME280;38732;49.556;6.286;2022-09-28T19:18:48;98045.06;;;13.10;85.86
51321;BME280;38732;49.556;6.286;2022-09-28T19:21:17;98044.81;;;13.18;87.20
51321;BME280;38732;49.556;6.286;2022-09-28T19:23:46;98049.53;;;13.05;88.34
51321;BME280;38732;49.556;6.286;2022-09-28T19:26:17;98049.31;;;13.13;87.25
51321;BME280;38732;49.556;6.286;2022-09-28T19:28:46;98047.59;;;13.12;87.62
51321;BME280;38732;49.556;6.286;2022-09-28T19:31:15;98046.53;;;13.17;86.61
51321;BME280;38732;49.556;6.286;2022-09-28T19:33:44;98053.56;;;13.14;87.09
51321;BME280;38732;49.556;6.286;2022-09-28T19:36:18;98051.25;;;13.06;87.14
51321;BME280;38732;49.556;6.286;2022-09-28T19:38:46;98047.38;;;12.93;87.76
51321;BME280;38732;49.556;6.286;2022-09-28T19:41:17;98052.47;;;12.94;87.08
51321;BME280;38732;49.556;6.286;2022-09-28T19:43:45;98055.84;;;12.98;86.97
51321;BME280;38732;49.556;6.286;2022-09-28T19:46:14;98050.47;;;13.03;87.27
51321;BME280;38732;49.556;6.286;2022-09-28T19:48:42;98051.88;;;12.86;87.62
51321;BME280;38732;49.556;6.286;2022-09-28T19:51:10;98055.47;;;12.82;87.87
51321;BME280;38732;49.556;6.286;2022-09-28T19:53:38;98060.00;;;12.76;87.17
51321;BME280;38732;49.556;6.286;2022-09-28T19:56:07;98063.69;;;12.68;87.44
51321;BME280;38732;49.556;6.286;2022-09-28T19:58:35;98070.25;;;12.79;89.12
51321;BME280;38732;49.556;6.286;2022-09-28T20:01:05;98063.84;;;12.62;86.98
51321;BME280;38732;49.556;6.286;2022-09-28T20:03:34;98065.50;;;12.65;87.03
51321;BME280;38732;49.556;6.286;2022-09-28T20:06:02;98068.28;;;12.59;86.13
51321;BME280;38732;49.556;6.286;2022-09-28T20:08:30;98069.38;;;12.51;86.02
51321;BME280;38732;49.556;6.286;2022-09-28T20:10:59;98065.63;;;12.60;88.02
51321;BME280;38732;49.556;6.286;2022-09-28T20:13:33;98073.78;;;12.48;86.80
51321;BME280;38732;49.556;6.286;2022-09-28T20:16:10;98068.75;;;12.43;87.52
51321;BME280;38732;49.556;6.286;2022-09-28T20:18:40;98069.78;;;12.38;87.25
51321;BME280;38732;49.556;6.286;2022-09-28T20:21:11;98065.59;;;12.34;86.21
51321;BME280;38732;49.556;6.286;2022-09-28T20:23:39;98067.13;;;12.11;85.03
51321;BME280;38732;49.556;6.286;2022-09-28T20:26:08;98069.06;;;12.03;85.63
51321;BME280;38732;49.556;6.286;2022-09-28T20:28:37;98067.94;;;12.13;86.41
51321;BME280;38732;49.556;6.286;2022-09-28T20:31:13;98072.94;;;12.18;86.58
51321;BME280;38732;49.556;6.286;2022-09-28T20:33:42;98070.19;;;11.94;85.67
51321;BME280;38732;49.556;6.286;2022-09-28T20:36:19;98075.38;;;11.93;85.71
51321;BME280;38732;49.556;6.286;2022-09-28T20:38:50;98083.09;;;11.96;85.88
51321;BME280;38732;49.556;6.286;2022-09-28T20:41:21;98082.38;;;11.91;87.09
51321;BME280;38732;49.556;6.286;2022-09-28T20:43:51;98079.00;;;11.85;85.31
51321;BME280;38732;49.556;6.286;2022-09-28T20:46:19;98080.81;;;11.83;86.17
51321;BME280;38732;49.556;6.286;2022-09-28T20:48:48;98086.44;;;11.65;85.02
51321;BME280;38732;49.556;6.286;2022-09-28T20:51:19;98083.97;;;11.60;86.37
51321;BME280;38732;49.556;6.286;2022-09-28T20:53:52;98082.59;;;11.49;85.67
51321;BME280;38732;49.556;6.286;2022-09-28T20:56:29;98082.13;;;11.65;86.98
51321;BME280;38732;49.556;6.286;2022-09-28T20:58:58;98084.16;;;11.54;84.95
51321;BME280;38732;49.556;6.286;2022-09-28T21:01:28;98093.53;;;11.24;82.67
51321;BME280;38732;49.556;6.286;2022-09-28T21:03:58;98088.72;;;11.10;83.44
51321;BME280;38732;49.556;6.286;2022-09-28T21:06:32;98090.25;;;11.17;84.64
51321;BME280;38732;49.556;6.286;2022-09-28T21:09:03;98084.03;;;11.26;86.38
51321;BME280;38732;49.556;6.286;2022-09-28T21:11:31;98082.41;;;11.22;85.86
51321;BME280;38732;49.556;6.286;2022-09-28T21:14:03;98086.00;;;11.15;85.69
51321;BME280;38732;49.556;6.286;2022-09-28T21:16:33;98090.44;;;11.10;85.36
51321;BME280;38732;49.556;6.286;2022-09-28T21:19:02;98094.16;;;10.98;85.19
51321;BME280;38732;49.556;6.286;2022-09-28T21:21:30;98094.75;;;10.73;83.84
51321;BME280;38732;49.556;6.286;2022-09-28T21:23:59;98087.72;;;10.80;84.42
51321;BME280;38732;49.556;6.286;2022-09-28T21:26:28;98089.44;;;10.81;84.87
51321;BME280;38732;49.556;6.286;2022-09-28T21:29:02;98094.59;;;10.81;85.80
51321;BME280;38732;49.556;6.286;2022-09-28T21:31:43;98086.03;;;10.79;85.50
51321;BME280;38732;49.556;6.286;2022-09-28T21:34:17;98090.22;;;10.83;85.87
51321;BME280;38732;49.556;6.286;2022-09-28T21:36:49;98089.63;;;10.72;86.09
51321;BME280;38732;49.556;6.286;2022-09-28T21:39:17;98086.50;;;10.57;84.35
51321;BME280;38732;49.556;6.286;2022-09-28T21:41:46;98090.06;;;10.52;84.14
51321;BME280;38732;49.556;6.286;2022-09-28T21:44:14;98085.19;;;10.38;83.18
51321;BME280;38732;49.556;6.286;2022-09-28T21:46:43;98092.81;;;10.44;84.07
51321;BME280;38732;49.556;6.286;2022-09-28T21:49:11;98087.56;;;10.49;85.97
51321;BME280;38732;49.556;6.286;2022-09-28T21:51:39;98086.56;;;10.56;86.59
51321;BME280;38732;49.556;6.286;2022-09-28T21:54:07;98078.00;;;10.54;85.60
51321;BME280;38732;49.556;6.286;2022-09-28T21:56:36;98084.81;;;10.56;85.54
51321;BME280;38732;49.556;6.286;2022-09-28T21:59:04;98087.41;;;10.56;86.36
51321;BME280;38732;49.556;6.286;2022-09-28T22:01:32;98083.28;;;10.48;84.32
51321;BME280;38732;49.556;6.286;2022-09-28T22:04:00;98087.22;;;10.24;83.60
51321;BME280;38732;49.556;6.286;2022-09-28T22:06:28;98091.66;;;10.15;83.90
51321;BME280;38732;49.556;6.286;2022-09-28T22:08:57;98089.13;;;10.14;82.67
51321;BME280;38732;49.556;6.286;2022-09-28T22:11:27;98083.41;;;9.98;82.46
51321;BME280;38732;49.556;6.286;2022-09-28T22:13:58;98090.19;;;10.04;82.93
51321;BME280;38732;49.556;6.286;2022-09-28T22:16:28;98093.13;;;9.85;83.20
51321;BME280;38732;49.556;6.286;2022-09-28T22:18:58;98090.38;;;9.93;83.12
51321;BME280;38732;49.556;6.286;2022-09-28T22:21:29;98086.03;;;9.97;84.40
51321;BME280;38732;49.556;6.286;2022-09-28T22:23:58;98090.28;;;9.99;85.38
51321;BME280;38732;49.556;6.286;2022-09-28T22:26:28;98093.19;;;9.82;84.08
51321;BME280;38732;49.556;6.286;2022-09-28T22:28:59;98094.91;;;9.82;83.37
51321;BME280;38732;49.556;6.286;2022-09-28T22:31:30;98094.88;;;9.83;84.72
51321;BME280;38732;49.556;6.286;2022-09-28T22:33:59;98100.84;;;9.85;84.85
51321;BME280;38732;49.556;6.286;2022-09-28T22:36:28;98101.81;;;9.80;85.46
51321;BME280;38732;49.556;6.286;2022-09-28T22:38:57;98101.09;;;9.73;86.23
51321;BME280;38732;49.556;6.286;2022-09-28T22:41:26;98102.97;;;9.65;83.07
51321;BME280;38732;49.556;6.286;2022-09-28T22:43:55;98096.75;;;9.75;83.66
51321;BME280;38732;49.556;6.286;2022-09-28T22:46:26;98094.31;;;9.67;84.75
51321;BME280;38732;49.556;6.286;2022-09-28T22:48:56;98097.13;;;9.55;82.78
51321;BME280;38732;49.556;6.286;2022-09-28T22:51:27;98094.63;;;9.50;82.08
51321;BME280;38732;49.556;6.286;2022-09-28T22:53:55;98102.63;;;9.35;83.11
51321;BME280;38732;49.556;6.286;2022-09-28T22:56:24;98104.25;;;9.41;83.29
51321;BME280;38732;49.556;6.286;2022-09-28T22:58:52;98103.47;;;9.36;83.05
51321;BME280;38732;49.556;6.286;2022-09-28T23:01:23;98096.50;;;9.41;84.40
51321;BME280;38732;49.556;6.286;2022-09-28T23:03:52;98107.84;;;9.32;84.53
51321;BME280;38732;49.556;6.286;2022-09-28T23:06:23;98099.56;;;9.13;83.51
51321;BME280;38732;49.556;6.286;2022-09-28T23:08:52;98096.97;;;9.16;83.55
51321;BME280;38732;49.556;6.286;2022-09-28T23:11:21;98093.22;;;9.34;84.79
51321;BME280;38732;49.556;6.286;2022-09-28T23:13:53;98089.03;;;9.27;84.17
51321;BME280;38732;49.556;6.286;2022-09-28T23:16:22;98091.88;;;9.10;84.06
51321;BME280;38732;49.556;6.286;2022-09-28T23:18:53;98087.75;;;9.01;84.24
51321;BME280;38732;49.556;6.286;2022-09-28T23:21:23;98087.44;;;9.21;83.88
51321;BME280;38732;49.556;6.286;2022-09-28T23:23:55;98080.56;;;9.20;85.34
51321;BME280;38732;49.556;6.286;2022-09-28T23:26:26;98092.66;;;9.17;85.90
51321;BME280;38732;49.556;6.286;2022-09-28T23:28:55;98083.31;;;9.11;83.60
51321;BME280;38732;49.556;6.286;2022-09-28T23:31:26;98085.91;;;9.08;83.75
51321;BME280;38732;49.556;6.286;2022-09-28T23:36:26;98084.69;;;9.31;87.32
51321;BME280;38732;49.556;6.286;2022-09-28T23:38:55;98081.75;;;9.50;87.66
51321;BME280;38732;49.556;6.286;2022-09-28T23:41:23;98083.53;;;9.47;85.37
51321;BME280;38732;49.556;6.286;2022-09-28T23:43:51;98085.63;;;9.26;82.78
51321;BME280;38732;49.556;6.286;2022-09-28T23:46:19;98082.69;;;9.46;85.75
51321;BME280;38732;49.556;6.286;2022-09-28T23:48:48;98081.94;;;9.40;82.32
51321;BME280;38732;49.556;6.286;2022-09-28T23:51:16;98071.63;;;9.41;83.02
51321;BME280;38732;49.556;6.286;2022-09-28T23:53:45;98078.69;;;9.30;83.25
51321;BME280;38732;49.556;6.286;2022-09-28T23:56:13;98077.53;;;9.46;85.16
51321;BME280;38732;49.556;6.286;2022-09-28T23:58:42;98073.31;;;9.41;84.43
